createdAt,value
2023-04-02T00:00:49.061Z,6.19
2023-04-02T00:01:49.097Z,6.16
2023-04-02T00:02:50.066Z,6.14
2023-04-02T00:03:49.048Z,6.11
2023-04-02T00:04:49.070Z,6.05
2023-04-02T00:05:49.012Z,6.07
2023-04-02T00:06:48.982Z,6.04
2023-04-02T00:07:49.896Z,6.05
2023-04-02T00:08:49.078Z,6.07
2023-04-02T00:09:48.984Z,6.08
2023-04-02T00:10:48.925Z,6.09
2023-04-02T00:11:48.935Z,6.16
2023-04-02T00:12:48.909Z,6.17
2023-04-02T00:13:49.831Z,6.22
2023-04-02T00:14:48.883Z,6.22
2023-04-02T00:15:48.893Z,6.26
2023-04-02T00:16:48.885Z,6.22
2023-04-02T00:17:48.858Z,6.22
2023-04-02T00:18:48.855Z,6.24
2023-04-02T00:19:49.806Z,6.26
2023-04-02T00:20:48.804Z,6.24
2023-04-02T00:21:48.827Z,6.27
2023-04-02T00:22:48.773Z,6.27
2023-04-02T00:23:48.775Z,6.22
2023-04-02T00:24:48.745Z,6.20
2023-04-02T00:25:49.730Z,6.20
2023-04-02T00:26:48.799Z,6.20
2023-04-02T00:27:48.727Z,6.17
2023-04-02T00:28:48.750Z,6.19
2023-04-02T00:29:48.785Z,6.17
2023-04-02T00:30:48.687Z,6.20
2023-04-02T00:31:49.758Z,6.24
2023-04-02T00:32:48.685Z,6.20
2023-04-02T00:33:48.690Z,6.20
2023-04-02T00:34:48.690Z,6.22
2023-04-02T00:35:48.699Z,6.22
2023-04-02T00:36:49.607Z,6.22
2023-04-02T00:37:48.564Z,6.16
2023-04-02T00:38:48.881Z,6.11
2023-04-02T00:39:48.599Z,6.12
2023-04-02T00:40:48.564Z,6.12
2023-04-02T00:41:49.560Z,6.14
2023-04-02T00:42:48.508Z,6.14
2023-04-02T00:43:48.512Z,6.14
2023-04-02T00:44:48.483Z,6.12
2023-04-02T00:45:48.670Z,6.12
2023-04-02T00:46:49.474Z,6.12
2023-04-02T00:47:48.489Z,6.12
2023-04-02T00:48:48.476Z,6.12
2023-04-02T00:49:48.436Z,6.12
2023-04-02T00:50:48.429Z,6.14
2023-04-02T00:51:48.412Z,6.16
2023-04-02T00:52:49.406Z,6.14
2023-04-02T00:53:48.385Z,6.14
2023-04-02T00:54:48.375Z,6.09
2023-04-02T00:55:48.382Z,6.09
2023-04-02T00:56:48.389Z,6.07
2023-04-02T00:57:48.334Z,6.08
2023-04-02T00:58:49.273Z,6.07
2023-04-02T00:59:48.372Z,6.08
2023-04-02T01:00:48.309Z,6.09
2023-04-02T01:01:48.373Z,6.08
2023-04-02T01:02:48.327Z,6.09
2023-04-02T01:03:49.194Z,6.07
2023-04-02T01:04:48.246Z,6.08
2023-04-02T01:05:48.290Z,6.11
2023-04-02T01:06:48.311Z,6.12
2023-04-02T01:07:48.208Z,6.12
2023-04-02T01:08:48.292Z,6.19
2023-04-02T01:09:49.131Z,6.19
2023-04-02T01:10:48.175Z,6.16
2023-04-02T01:11:48.187Z,6.16
2023-04-02T01:12:48.186Z,6.16
2023-04-02T01:13:48.148Z,6.17
2023-04-02T01:14:49.041Z,6.17
2023-04-02T01:15:48.207Z,6.17
2023-04-02T01:16:48.143Z,6.16
2023-04-02T01:17:48.162Z,6.17
2023-04-02T01:18:48.072Z,6.19
2023-04-02T01:19:48.747Z,6.19
2023-04-02T01:20:48.976Z,6.19
2023-04-02T01:21:48.044Z,6.20
2023-04-02T01:22:48.089Z,6.20
2023-04-02T01:23:48.173Z,6.19
2023-04-02T01:24:47.995Z,6.17
2023-04-02T01:25:48.931Z,6.20
2023-04-02T01:26:48.001Z,6.16
2023-04-02T01:27:47.968Z,6.12
2023-04-02T01:28:47.915Z,6.09
2023-04-02T01:29:47.955Z,6.05
2023-04-02T01:30:47.913Z,6.04
2023-04-02T01:31:49.006Z,6.04
2023-04-02T01:32:47.932Z,6.04
2023-04-02T01:33:47.915Z,6.05
2023-04-02T01:34:47.860Z,6.05
2023-04-02T01:35:47.882Z,6.04
2023-04-02T01:36:48.761Z,6.04
2023-04-02T01:37:47.917Z,6.05
2023-04-02T01:38:47.812Z,6.02
2023-04-02T01:39:47.761Z,6.01
2023-04-02T01:40:47.785Z,5.99
2023-04-02T01:41:47.767Z,5.98
2023-04-02T01:42:48.667Z,5.97
2023-04-02T01:43:47.773Z,5.99
2023-04-02T01:44:47.773Z,6.01
2023-04-02T01:45:47.726Z,5.99
2023-04-02T01:46:47.813Z,6.01
2023-04-02T01:47:48.651Z,6.02
2023-04-02T01:48:47.722Z,6.02
2023-04-02T01:49:47.704Z,6.01
2023-04-02T01:50:47.680Z,5.99
2023-04-02T01:51:47.628Z,6.02
2023-04-02T01:52:47.614Z,6.02
2023-04-02T01:53:48.551Z,6.04
2023-04-02T01:54:47.629Z,6.07
2023-04-02T01:55:47.572Z,6.05
2023-04-02T01:56:47.583Z,6.02
2023-04-02T01:57:47.574Z,5.99
2023-04-02T01:58:47.555Z,5.98
2023-04-02T01:59:48.486Z,6.01
2023-04-02T02:00:47.623Z,5.98
2023-04-02T02:01:47.536Z,5.97
2023-04-02T02:02:47.514Z,5.97
2023-04-02T02:03:47.545Z,5.98
2023-04-02T02:04:47.498Z,5.97
2023-04-02T02:05:48.446Z,5.99
2023-04-02T02:06:47.449Z,6.01
2023-04-02T02:07:47.453Z,6.01
2023-04-02T02:08:47.445Z,5.99
2023-04-02T02:09:47.427Z,5.98
2023-04-02T02:10:47.445Z,5.97
2023-04-02T02:11:48.332Z,5.89
2023-04-02T02:12:47.394Z,5.89
2023-04-02T02:13:47.383Z,5.87
2023-04-02T02:14:47.378Z,5.86
2023-04-02T02:15:47.369Z,5.87
2023-04-02T02:16:47.370Z,5.90
2023-04-02T02:17:48.243Z,5.93
2023-04-02T02:18:47.313Z,5.94
2023-04-02T02:19:47.311Z,5.97
2023-04-02T02:20:47.288Z,5.94
2023-04-02T02:21:47.248Z,5.91
2023-04-02T02:22:47.255Z,5.90
2023-04-02T02:23:48.163Z,5.89
2023-04-02T02:24:47.221Z,5.86
2023-04-02T02:25:47.225Z,5.84
2023-04-02T02:26:47.214Z,5.79
2023-04-02T02:27:47.217Z,5.75
2023-04-02T02:28:47.198Z,5.73
2023-04-02T02:29:48.081Z,5.71
2023-04-02T02:30:47.221Z,5.71
2023-04-02T02:31:47.150Z,5.69
2023-04-02T02:32:47.165Z,5.71
2023-04-02T02:33:47.119Z,5.72
2023-04-02T02:34:48.095Z,5.71
2023-04-02T02:35:47.135Z,5.65
2023-04-02T02:36:47.110Z,5.62
2023-04-02T02:37:47.043Z,5.59
2023-04-02T02:38:47.030Z,5.59
2023-04-02T02:39:47.049Z,5.59
2023-04-02T02:40:47.955Z,5.62
2023-04-02T02:41:47.020Z,5.65
2023-04-02T02:42:47.053Z,5.64
2023-04-02T02:43:47.119Z,5.65
2023-04-02T02:44:46.953Z,5.65
2023-04-02T02:45:47.044Z,5.66
2023-04-02T02:46:47.902Z,5.71
2023-04-02T02:47:46.925Z,5.71
2023-04-02T02:48:46.950Z,5.71
2023-04-02T02:49:46.901Z,5.75
2023-04-02T02:50:46.928Z,5.79
2023-04-02T02:51:46.901Z,5.82
2023-04-02T02:52:47.861Z,5.82
2023-04-02T02:53:47.820Z,5.84
2023-04-02T02:54:46.861Z,5.84
2023-04-02T02:55:46.886Z,5.84
2023-04-02T02:56:46.880Z,5.84
2023-04-02T02:57:46.827Z,5.84
2023-04-02T02:58:47.723Z,5.83
2023-04-02T02:59:46.794Z,5.84
2023-04-02T03:00:46.773Z,5.87
2023-04-02T03:01:46.835Z,5.90
2023-04-02T03:02:46.896Z,5.90
2023-04-02T03:03:46.984Z,5.91
2023-04-02T03:04:47.622Z,5.91
2023-04-02T03:05:46.720Z,5.93
2023-04-02T03:06:46.683Z,5.90
2023-04-02T03:07:46.709Z,5.90
2023-04-02T03:08:46.649Z,5.86
2023-04-02T03:09:46.649Z,5.86
2023-04-02T03:10:47.615Z,5.87
2023-04-02T03:11:46.639Z,5.87
2023-04-02T03:12:46.620Z,5.87
2023-04-02T03:13:46.609Z,5.89
2023-04-02T03:14:46.614Z,5.93
2023-04-02T03:15:47.543Z,5.91
2023-04-02T03:16:46.575Z,5.91
2023-04-02T03:17:46.601Z,5.91
2023-04-02T03:18:46.543Z,5.91
2023-04-02T03:19:46.563Z,5.91
2023-04-02T03:20:47.420Z,5.93
2023-04-02T03:21:46.499Z,5.93
2023-04-02T03:22:46.473Z,5.98
2023-04-02T03:23:46.469Z,5.97
2023-04-02T03:24:46.492Z,5.97
2023-04-02T03:25:46.453Z,5.97
2023-04-02T03:26:47.374Z,5.94
2023-04-02T03:27:46.433Z,5.93
2023-04-02T03:28:46.400Z,5.93
2023-04-02T03:29:46.418Z,5.93
2023-04-02T03:30:46.385Z,5.93
2023-04-02T03:31:47.467Z,5.94
2023-04-02T03:32:46.431Z,5.97
2023-04-02T03:33:46.381Z,5.97
2023-04-02T03:34:46.313Z,5.98
2023-04-02T03:35:46.338Z,5.97
2023-04-02T03:36:46.303Z,5.94
2023-04-02T03:37:47.270Z,5.94
2023-04-02T03:38:46.286Z,5.90
2023-04-02T03:39:46.256Z,5.89
2023-04-02T03:40:46.277Z,5.87
2023-04-02T03:41:46.269Z,5.86
2023-04-02T03:42:46.265Z,5.86
2023-04-02T03:43:47.152Z,5.84
2023-04-02T03:44:46.192Z,5.87
2023-04-02T03:45:46.224Z,5.89
2023-04-02T03:46:46.198Z,5.89
2023-04-02T03:47:46.212Z,5.87
2023-04-02T03:48:47.093Z,5.89
2023-04-02T03:49:46.124Z,5.90
2023-04-02T03:50:46.152Z,5.91
2023-04-02T03:51:46.114Z,5.91
2023-04-02T03:52:46.100Z,5.91
2023-04-02T03:53:46.100Z,5.89
2023-04-02T03:54:53.943Z,5.90
2023-04-02T03:55:47.602Z,5.89
2023-04-02T03:56:46.035Z,5.90
2023-04-02T03:57:46.062Z,5.94
2023-04-02T03:58:46.037Z,5.97
2023-04-02T03:59:47.318Z,5.97
2023-04-02T04:00:46.969Z,5.91
2023-04-02T04:01:46.005Z,5.91
2023-04-02T04:02:46.014Z,5.89
2023-04-02T04:03:46.008Z,5.90
2023-04-02T04:04:46.042Z,5.90
2023-04-02T04:05:46.845Z,5.89
2023-04-02T04:06:45.904Z,5.84
2023-04-02T04:07:45.934Z,5.84
2023-04-02T04:08:45.891Z,5.80
2023-04-02T04:09:45.871Z,5.80
2023-04-02T04:10:45.893Z,5.80
2023-04-02T04:11:46.841Z,5.80
2023-04-02T04:12:45.870Z,5.80
2023-04-02T04:13:45.836Z,5.82
2023-04-02T04:14:45.842Z,5.82
2023-04-02T04:15:45.800Z,5.82
2023-04-02T04:16:46.765Z,5.83
2023-04-02T04:17:45.839Z,5.83
2023-04-02T04:18:45.777Z,5.83
2023-04-02T04:19:45.836Z,5.84
2023-04-02T04:20:45.730Z,5.84
2023-04-02T04:21:45.735Z,5.87
2023-04-02T04:22:46.662Z,5.84
2023-04-02T04:23:45.746Z,5.84
2023-04-02T04:24:45.725Z,5.86
2023-04-02T04:25:45.673Z,5.89
2023-04-02T04:26:45.715Z,5.87
2023-04-02T04:27:46.570Z,5.89
2023-04-02T04:28:45.657Z,5.91
2023-04-02T04:29:45.674Z,5.93
2023-04-02T04:30:45.721Z,5.93
2023-04-02T04:31:45.619Z,5.91
2023-04-02T04:32:45.615Z,5.91
2023-04-02T04:33:46.580Z,5.91
2023-04-02T04:34:45.583Z,5.89
2023-04-02T04:35:45.664Z,5.90
2023-04-02T04:36:45.596Z,5.90
2023-04-02T04:37:45.943Z,5.89
2023-04-02T04:38:46.612Z,5.89
2023-04-02T04:39:45.606Z,5.89
2023-04-02T04:40:45.491Z,5.89
2023-04-02T04:41:45.481Z,5.87
2023-04-02T04:42:45.470Z,5.89
2023-04-02T04:43:45.465Z,5.90
2023-04-02T04:44:46.367Z,5.87
2023-04-02T04:45:45.539Z,5.87
2023-04-02T04:46:45.419Z,5.87
2023-04-02T04:47:45.477Z,5.90
2023-04-02T04:48:45.366Z,5.87
2023-04-02T04:49:46.328Z,5.84
2023-04-02T04:50:45.415Z,5.82
2023-04-02T04:51:45.366Z,5.79
2023-04-02T04:52:45.342Z,5.76
2023-04-02T04:53:45.369Z,5.72
2023-04-02T04:54:45.300Z,5.71
2023-04-02T04:55:46.306Z,5.72
2023-04-02T04:56:45.302Z,5.73
2023-04-02T04:57:45.285Z,5.75
2023-04-02T04:58:45.293Z,5.76
2023-04-02T04:59:45.247Z,5.79
2023-04-02T05:00:45.226Z,5.82
2023-04-02T05:01:46.172Z,5.86
2023-04-02T05:02:45.249Z,5.87
2023-04-02T05:03:45.208Z,5.89
2023-04-02T05:04:45.246Z,5.91
2023-04-02T05:05:45.160Z,5.94
2023-04-02T05:06:46.087Z,5.99
2023-04-02T05:07:45.189Z,6.02
2023-04-02T05:08:45.141Z,6.07
2023-04-02T05:09:45.154Z,6.11
2023-04-02T05:10:45.132Z,6.11
2023-04-02T05:11:46.075Z,6.17
2023-04-02T05:12:45.121Z,6.20
2023-04-02T05:13:45.062Z,6.22
2023-04-02T05:14:45.082Z,6.22
2023-04-02T05:15:45.052Z,6.22
2023-04-02T05:16:45.984Z,6.26
2023-04-02T05:17:45.058Z,6.24
2023-04-02T05:18:45.010Z,6.24
2023-04-02T05:19:45.047Z,6.24
2023-04-02T05:20:45.031Z,6.24
2023-04-02T05:21:45.921Z,6.24
2023-04-02T05:22:44.986Z,6.20
2023-04-02T05:23:45.023Z,6.19
2023-04-02T05:24:44.937Z,6.08
2023-04-02T05:25:44.927Z,6.05
2023-04-02T05:26:45.872Z,6.05
2023-04-02T05:27:44.875Z,6.04
2023-04-02T05:28:44.903Z,6.04
2023-04-02T05:29:44.892Z,6.05
2023-04-02T05:30:44.877Z,6.05
2023-04-02T05:31:44.946Z,6.05
2023-04-02T05:32:45.807Z,6.08
2023-04-02T05:33:44.879Z,6.08
2023-04-02T05:34:44.929Z,6.09
2023-04-02T05:35:44.821Z,6.08
2023-04-02T05:36:45.738Z,6.04
2023-04-02T05:37:45.752Z,5.99
2023-04-02T05:38:45.777Z,5.98
2023-04-02T05:39:44.740Z,5.98
2023-04-02T05:40:44.726Z,5.99
2023-04-02T05:41:44.764Z,6.02
2023-04-02T05:42:44.693Z,6.05
2023-04-02T05:43:45.633Z,6.05
2023-04-02T05:44:44.664Z,6.08
2023-04-02T05:45:44.708Z,6.09
2023-04-02T05:46:44.757Z,6.14
2023-04-02T05:47:44.836Z,6.17
2023-04-02T05:48:45.654Z,6.20
2023-04-02T05:49:44.629Z,6.26
2023-04-02T05:50:44.612Z,6.28
2023-04-02T05:51:44.681Z,6.31
2023-04-02T05:52:44.581Z,6.31
2023-04-02T05:53:45.508Z,6.31
2023-04-02T05:54:44.588Z,6.35
2023-04-02T05:55:44.545Z,6.36
2023-04-02T05:56:44.549Z,6.38
2023-04-02T05:57:52.833Z,6.39
2023-04-02T05:58:46.097Z,6.39
2023-04-02T05:59:45.456Z,6.42
2023-04-02T06:00:44.493Z,6.44
2023-04-02T06:01:44.521Z,6.45
2023-04-02T06:02:44.482Z,6.46
2023-04-02T06:03:44.512Z,6.46
2023-04-02T06:04:44.453Z,6.45
2023-04-02T06:05:45.342Z,6.46
2023-04-02T06:06:44.399Z,6.46
2023-04-02T06:07:44.374Z,6.48
2023-04-02T06:08:44.472Z,6.45
2023-04-02T06:09:44.365Z,6.44
2023-04-02T06:10:45.220Z,6.45
2023-04-02T06:11:45.324Z,6.38
2023-04-02T06:12:44.367Z,6.35
2023-04-02T06:13:44.337Z,6.31
2023-04-02T06:14:45.232Z,6.30
2023-04-02T06:15:46.523Z,6.31
2023-04-02T06:16:44.361Z,6.33
2023-04-02T06:17:45.319Z,6.36
2023-04-02T06:18:44.262Z,6.33
2023-04-02T06:19:44.216Z,6.33
2023-04-02T06:20:44.269Z,6.35
2023-04-02T06:21:44.221Z,6.35
2023-04-02T06:22:44.196Z,6.33
2023-04-02T06:23:45.118Z,6.31
2023-04-02T06:24:44.234Z,6.31
2023-04-02T06:25:44.142Z,6.36
2023-04-02T06:26:44.170Z,6.39
2023-04-02T06:27:44.163Z,6.44
2023-04-02T06:28:44.166Z,6.51
2023-04-02T06:29:45.042Z,6.60
2023-04-02T06:30:44.147Z,6.63
2023-04-02T06:31:44.131Z,6.63
2023-04-02T06:32:44.127Z,6.69
2023-04-02T06:33:44.045Z,6.72
2023-04-02T06:34:44.086Z,6.74
2023-04-02T06:35:45.024Z,6.74
2023-04-02T06:36:44.019Z,6.74
2023-04-02T06:37:43.991Z,6.75
2023-04-02T06:38:44.005Z,6.78
2023-04-02T06:39:44.017Z,6.81
2023-04-02T06:40:44.879Z,6.85
2023-04-02T06:41:43.941Z,6.89
2023-04-02T06:42:43.971Z,6.96
2023-04-02T06:43:43.915Z,7.02
2023-04-02T06:44:43.987Z,7.05
2023-04-02T06:45:43.957Z,7.13
2023-04-02T06:46:44.890Z,7.15
2023-04-02T06:47:43.958Z,7.18
2023-04-02T06:48:43.898Z,7.23
2023-04-02T06:49:43.866Z,7.35
2023-04-02T06:50:43.858Z,7.40
2023-04-02T06:51:43.833Z,7.50
2023-04-02T06:52:44.780Z,7.53
2023-04-02T06:53:43.835Z,7.60
2023-04-02T06:54:43.831Z,7.63
2023-04-02T06:55:43.801Z,7.67
2023-04-02T06:56:43.779Z,7.69
2023-04-02T06:57:44.726Z,7.67
2023-04-02T06:58:43.778Z,7.70
2023-04-02T06:59:43.725Z,7.72
2023-04-02T07:00:43.730Z,7.72
2023-04-02T07:01:43.789Z,7.69
2023-04-02T07:02:44.678Z,7.63
2023-04-02T07:03:43.680Z,7.61
2023-04-02T07:04:43.720Z,7.54
2023-04-02T07:05:43.675Z,7.51
2023-04-02T07:06:43.675Z,7.43
2023-04-02T07:07:44.655Z,7.36
2023-04-02T07:08:43.609Z,7.31
2023-04-02T07:09:43.900Z,7.32
2023-04-02T07:10:43.622Z,7.35
2023-04-02T07:11:43.632Z,7.40
2023-04-02T07:12:43.544Z,7.42
2023-04-02T07:13:44.566Z,7.43
2023-04-02T07:14:43.539Z,7.42
2023-04-02T07:15:43.580Z,7.43
2023-04-02T07:16:43.541Z,7.43
2023-04-02T07:17:43.570Z,7.47
2023-04-02T07:18:44.474Z,7.50
2023-04-02T07:19:43.553Z,7.51
2023-04-02T07:20:43.480Z,7.50
2023-04-02T07:21:43.475Z,7.48
2023-04-02T07:22:43.465Z,7.50
2023-04-02T07:23:44.453Z,7.51
2023-04-02T07:24:43.540Z,7.53
2023-04-02T07:25:43.434Z,7.57
2023-04-02T07:26:43.505Z,7.60
2023-04-02T07:27:43.443Z,7.63
2023-04-02T07:28:44.398Z,7.67
2023-04-02T07:29:43.363Z,7.72
2023-04-02T07:30:43.354Z,7.72
2023-04-02T07:31:43.413Z,7.75
2023-04-02T07:32:43.361Z,7.73
2023-04-02T07:33:44.261Z,7.77
2023-04-02T07:34:43.299Z,7.80
2023-04-02T07:35:43.337Z,7.88
2023-04-02T07:36:43.262Z,7.94
2023-04-02T07:37:43.252Z,7.97
2023-04-02T07:38:43.268Z,7.98
2023-04-02T07:39:44.268Z,8.00
2023-04-02T07:40:43.229Z,8.00
2023-04-02T07:41:43.188Z,8.03
2023-04-02T07:42:43.213Z,8.03
2023-04-02T07:43:43.203Z,8.00
2023-04-02T07:44:44.093Z,8.01
2023-04-02T07:45:43.160Z,8.06
2023-04-02T07:46:43.199Z,8.15
2023-04-02T07:47:43.172Z,8.23
2023-04-02T07:48:43.141Z,8.26
2023-04-02T07:49:43.081Z,8.28
2023-04-02T07:50:44.077Z,8.27
2023-04-02T07:51:43.082Z,8.24
2023-04-02T07:52:43.098Z,8.20
2023-04-02T07:53:43.063Z,8.23
2023-04-02T07:54:43.054Z,8.24
2023-04-02T07:55:43.148Z,8.28
2023-04-02T07:56:43.940Z,8.33
2023-04-02T07:57:45.645Z,8.37
2023-04-02T07:58:43.000Z,8.38
2023-04-02T07:59:43.917Z,8.44
2023-04-02T08:00:42.966Z,8.44
2023-04-02T08:01:43.204Z,8.42
2023-04-02T08:02:43.956Z,8.45
2023-04-02T08:03:43.105Z,8.49
2023-04-02T08:04:42.897Z,8.53
2023-04-02T08:05:42.942Z,8.60
2023-04-02T08:06:42.867Z,8.60
2023-04-02T08:07:43.808Z,8.61
2023-04-02T08:08:42.873Z,8.58
2023-04-02T08:09:42.834Z,8.55
2023-04-02T08:10:42.870Z,8.53
2023-04-02T08:11:42.827Z,8.49
2023-04-02T08:12:42.820Z,8.51
2023-04-02T08:13:43.798Z,8.51
2023-04-02T08:14:42.792Z,8.52
2023-04-02T08:15:42.773Z,8.55
2023-04-02T08:16:42.806Z,8.55
2023-04-02T08:17:42.767Z,8.52
2023-04-02T08:18:42.739Z,8.51
2023-04-02T08:19:54.060Z,8.55
2023-04-02T08:20:44.345Z,8.56
2023-04-02T08:21:42.681Z,8.58
2023-04-02T08:22:42.684Z,8.60
2023-04-02T08:23:42.683Z,8.60
2023-04-02T08:24:43.671Z,8.56
2023-04-02T08:25:42.651Z,8.55
2023-04-02T08:26:43.956Z,8.56
2023-04-02T08:27:42.638Z,8.61
2023-04-02T08:28:42.592Z,8.69
2023-04-02T08:29:42.590Z,8.70
2023-04-02T08:30:43.539Z,8.74
2023-04-02T08:31:42.588Z,8.78
2023-04-02T08:32:42.681Z,8.78
2023-04-02T08:33:42.537Z,8.78
2023-04-02T08:34:42.521Z,8.78
2023-04-02T08:35:43.469Z,8.73
2023-04-02T08:36:42.532Z,8.69
2023-04-02T08:37:42.474Z,8.67
2023-04-02T08:38:42.489Z,8.73
2023-04-02T08:39:42.493Z,8.71
2023-04-02T08:40:42.502Z,8.70
2023-04-02T08:41:43.392Z,8.71
2023-04-02T08:42:42.438Z,8.71
2023-04-02T08:43:42.397Z,8.73
2023-04-02T08:44:42.410Z,8.79
2023-04-02T08:45:42.558Z,8.82
2023-04-02T08:46:42.342Z,8.81
2023-04-02T08:47:43.302Z,8.81
2023-04-02T08:48:42.773Z,8.82
2023-04-02T08:49:42.313Z,8.81
2023-04-02T08:50:42.347Z,8.81
2023-04-02T08:51:42.272Z,8.76
2023-04-02T08:52:43.192Z,8.71
2023-04-02T08:53:42.287Z,8.74
2023-04-02T08:54:42.265Z,8.70
2023-04-02T08:55:42.216Z,8.66
2023-04-02T08:56:42.222Z,8.69
2023-04-02T08:57:42.245Z,8.69
2023-04-02T08:58:43.145Z,8.67
2023-04-02T08:59:42.198Z,8.66
2023-04-02T09:00:42.177Z,8.67
2023-04-02T09:01:42.269Z,8.66
2023-04-02T09:02:42.148Z,8.63
2023-04-02T09:03:42.110Z,8.64
2023-04-02T09:04:43.113Z,8.67
2023-04-02T09:05:42.088Z,8.67
2023-04-02T09:06:42.080Z,8.70
2023-04-02T09:07:42.119Z,8.73
2023-04-02T09:08:42.068Z,8.70
2023-04-02T09:09:42.057Z,8.69
2023-04-02T09:10:43.004Z,8.66
2023-04-02T09:11:42.019Z,8.76
2023-04-02T09:12:42.380Z,8.92
2023-04-02T09:13:41.997Z,9.08
2023-04-02T09:14:41.991Z,9.23
2023-04-02T09:15:42.000Z,9.36
2023-04-02T09:16:42.888Z,9.48
2023-04-02T09:17:53.194Z,9.59
2023-04-02T09:18:43.513Z,9.66
2023-04-02T09:19:41.930Z,9.72
2023-04-02T09:20:41.909Z,9.82
2023-04-02T09:21:42.850Z,9.92
2023-04-02T09:22:41.887Z,10.02
2023-04-02T09:23:41.883Z,10.13
2023-04-02T09:24:41.870Z,10.20
2023-04-02T09:25:42.211Z,10.26
2023-04-02T09:26:42.836Z,10.35
2023-04-02T09:27:42.610Z,10.46
2023-04-02T09:28:41.815Z,10.56
2023-04-02T09:29:41.820Z,10.61
2023-04-02T09:30:41.811Z,10.67
2023-04-02T09:31:42.758Z,10.74
2023-04-02T09:32:41.810Z,10.87
2023-04-02T09:33:41.769Z,10.96
2023-04-02T09:34:41.760Z,11.00
2023-04-02T09:35:41.848Z,11.00
2023-04-02T09:36:42.673Z,10.99
2023-04-02T09:37:41.685Z,10.99
2023-04-02T09:38:41.686Z,11.07
2023-04-02T09:39:43.150Z,11.10
2023-04-02T09:40:41.654Z,11.17
2023-04-02T09:41:43.804Z,11.23
2023-04-02T09:42:41.650Z,11.33
2023-04-02T09:43:42.523Z,11.43
2023-04-02T09:44:41.648Z,11.50
2023-04-02T09:45:41.604Z,11.52
2023-04-02T09:46:41.619Z,11.62
2023-04-02T09:47:42.649Z,11.72
2023-04-02T09:48:41.575Z,11.73
2023-04-02T09:49:41.593Z,11.80
2023-04-02T09:50:42.422Z,11.86
2023-04-02T09:51:41.524Z,11.91
2023-04-02T09:52:41.527Z,12.00
2023-04-02T09:53:42.750Z,12.12
2023-04-02T09:54:41.538Z,12.28
2023-04-02T09:55:41.555Z,12.36
2023-04-02T09:56:41.462Z,12.40
2023-04-02T09:57:41.471Z,12.43
2023-04-02T09:58:42.364Z,12.54
2023-04-02T09:59:41.446Z,12.61
2023-04-02T10:00:42.192Z,12.68
2023-04-02T10:01:41.432Z,12.65
2023-04-02T10:02:41.427Z,12.76
2023-04-02T10:03:42.328Z,12.80
2023-04-02T10:04:41.451Z,12.93
2023-04-02T10:05:41.711Z,13.22
2023-04-02T10:06:41.308Z,13.46
2023-04-02T10:07:41.376Z,13.71
2023-04-02T10:08:41.311Z,13.95
2023-04-02T10:09:42.255Z,13.93
2023-04-02T10:10:41.281Z,14.15
2023-04-02T10:12:41.274Z,14.07
2023-04-02T10:13:41.245Z,14.00
2023-04-02T10:14:41.210Z,13.95
2023-04-02T10:15:42.159Z,13.85
2023-04-02T10:16:41.218Z,13.72
2023-04-02T10:17:41.242Z,13.60
2023-04-02T10:18:41.198Z,13.46
2023-04-02T10:19:41.179Z,13.35
2023-04-02T10:20:51.030Z,13.25
2023-04-02T10:21:42.696Z,13.19
2023-04-02T10:22:41.148Z,13.04
2023-04-02T10:23:41.157Z,12.90
2023-04-02T10:24:41.091Z,12.78
2023-04-02T10:25:42.068Z,12.70
2023-04-02T10:26:41.087Z,12.73
2023-04-02T10:27:41.066Z,12.58
2023-04-02T10:28:41.052Z,12.49
2023-04-02T10:29:41.089Z,12.45
2023-04-02T10:30:41.134Z,12.42
2023-04-02T10:31:41.982Z,12.40
2023-04-02T10:32:41.067Z,12.42
2023-04-02T10:33:40.991Z,12.42
2023-04-02T10:34:42.866Z,12.40
2023-04-02T10:35:41.022Z,12.42
2023-04-02T10:36:41.894Z,12.42
2023-04-02T10:37:40.960Z,12.50
2023-04-02T10:38:40.927Z,12.46
2023-04-02T10:39:41.013Z,12.54
2023-04-02T10:40:40.911Z,12.75
2023-04-02T10:41:40.917Z,13.03
2023-04-02T10:42:41.816Z,13.20
2023-04-02T10:43:40.855Z,13.54
2023-04-02T10:44:40.866Z,13.77
2023-04-02T10:45:40.845Z,14.05
2023-04-02T10:46:40.915Z,14.41
2023-04-02T10:47:40.884Z,14.41
2023-04-02T10:48:41.771Z,14.66
2023-04-02T10:49:40.875Z,15.02
2023-04-02T10:50:40.790Z,15.29
2023-04-02T10:51:40.821Z,15.47
2023-04-02T10:52:40.839Z,15.75
2023-04-02T10:53:41.687Z,16.01
2023-04-02T10:54:40.748Z,16.12
2023-04-02T10:55:40.719Z,16.20
2023-04-02T10:56:49.940Z,16.47
2023-04-02T10:57:43.272Z,16.74
2023-04-02T10:58:42.959Z,17.15
2023-04-02T10:59:40.761Z,17.19
2023-04-02T11:00:40.645Z,17.20
2023-04-02T11:01:40.724Z,17.59
2023-04-02T11:02:40.845Z,17.94
2023-04-02T11:03:41.762Z,17.52
2023-04-02T11:05:39.566Z,16.76
2023-04-02T11:06:39.512Z,16.49
2023-04-02T11:07:39.548Z,16.20
2023-04-02T11:08:39.495Z,15.94
2023-04-02T11:09:41.424Z,15.73
2023-04-02T11:10:39.514Z,15.47
2023-04-02T11:11:39.605Z,15.21
2023-04-02T11:12:41.698Z,14.88
2023-04-02T11:13:39.514Z,14.58
2023-04-02T11:14:40.348Z,14.37
2023-04-02T11:15:39.536Z,14.22
2023-04-02T11:16:43.956Z,14.05
2023-04-02T11:17:40.959Z,13.87
2023-04-02T11:18:39.391Z,13.75
2023-04-02T11:19:39.404Z,13.57
2023-04-02T11:20:39.357Z,13.46
2023-04-02T11:21:51.134Z,13.30
2023-04-02T11:22:40.853Z,13.22
2023-04-02T11:23:39.324Z,13.11
2023-04-02T11:24:39.289Z,12.98
2023-04-02T11:25:40.282Z,12.90
2023-04-02T11:26:39.324Z,12.86
2023-04-02T11:27:39.232Z,12.83
2023-04-02T11:28:39.283Z,12.79
2023-04-02T11:29:39.253Z,12.78
2023-04-02T11:30:39.285Z,12.76
2023-04-02T11:31:40.204Z,12.83
2023-04-02T11:32:39.515Z,12.87
2023-04-02T11:33:41.954Z,12.94
2023-04-02T11:34:39.172Z,12.95
2023-04-02T11:35:39.549Z,13.20
2023-04-02T11:36:40.100Z,14.11
2023-04-02T11:37:39.203Z,14.45
2023-04-02T11:38:39.115Z,14.63
2023-04-02T11:39:39.121Z,15.39
2023-04-02T11:40:39.078Z,15.36
2023-04-02T11:41:40.091Z,15.29
2023-04-02T11:42:39.095Z,15.52
2023-04-02T11:43:39.267Z,15.80
2023-04-02T11:44:39.060Z,15.64
2023-04-02T11:45:50.125Z,15.54
2023-04-02T11:46:40.546Z,15.40
2023-04-02T11:47:40.050Z,15.25
2023-04-02T11:48:38.992Z,15.15
2023-04-02T11:49:38.988Z,15.04
2023-04-02T11:50:39.054Z,14.97
2023-04-02T11:51:38.964Z,14.89
2023-04-02T11:52:39.911Z,14.91
2023-04-02T11:53:38.972Z,15.79
2023-04-02T11:54:38.923Z,15.73
2023-04-02T11:55:39.172Z,16.05
2023-04-02T11:56:38.860Z,16.71
2023-04-02T11:57:38.947Z,16.65
2023-04-02T11:58:39.775Z,16.74
2023-04-02T11:59:38.853Z,16.84
2023-04-02T12:00:38.801Z,16.90
2023-04-02T12:01:38.903Z,16.96
2023-04-02T12:02:38.939Z,16.78
2023-04-02T12:03:38.781Z,16.65
2023-04-02T12:04:39.694Z,16.75
2023-04-02T12:05:38.825Z,16.60
2023-04-02T12:06:38.769Z,16.54
2023-04-02T12:07:38.770Z,16.33
2023-04-02T12:08:47.518Z,16.15
2023-04-02T12:09:41.122Z,15.91
2023-04-02T12:10:38.709Z,15.67
2023-04-02T12:11:38.679Z,15.52
2023-04-02T12:12:38.652Z,15.40
2023-04-02T12:13:38.643Z,15.22
2023-04-02T12:14:39.619Z,15.04
2023-04-02T12:15:38.662Z,14.78
2023-04-02T12:16:38.649Z,14.54
2023-04-02T12:17:38.638Z,14.37
2023-04-02T12:18:38.648Z,14.23
2023-04-02T12:19:39.508Z,14.08
2023-04-02T12:20:38.550Z,13.96
2023-04-02T12:21:38.546Z,13.83
2023-04-02T12:22:40.214Z,13.74
2023-04-02T12:23:38.545Z,13.68
2023-04-02T12:24:39.439Z,13.70
2023-04-02T12:25:44.341Z,13.72
2023-04-02T12:26:38.565Z,13.81
2023-04-02T12:27:38.496Z,13.87
2023-04-02T12:28:38.457Z,13.92
2023-04-02T12:29:38.437Z,13.89
2023-04-02T12:30:39.391Z,13.79
2023-04-02T12:31:38.439Z,13.79
2023-04-02T12:32:38.484Z,13.79
2023-04-02T12:33:38.413Z,13.78
2023-04-02T12:34:38.402Z,13.72
2023-04-02T12:35:39.305Z,13.71
2023-04-02T12:36:38.358Z,13.72
2023-04-02T12:37:38.355Z,13.78
2023-04-02T12:38:38.339Z,14.88
2023-04-02T12:39:38.364Z,16.16
2023-04-02T12:40:38.529Z,17.34
2023-04-02T12:41:39.217Z,18.55
2023-04-02T12:42:38.308Z,19.15
2023-04-02T12:43:38.249Z,19.07
2023-04-02T12:44:38.264Z,18.52
2023-04-02T12:45:38.240Z,18.25
2023-04-02T12:46:39.244Z,18.13
2023-04-02T12:47:38.249Z,17.82
2023-04-02T12:48:38.234Z,17.65
2023-04-02T12:49:38.189Z,17.45
2023-04-02T12:50:38.481Z,17.22
2023-04-02T12:51:38.176Z,16.94
2023-04-02T12:52:39.061Z,16.69
2023-04-02T12:53:38.140Z,16.41
2023-04-02T12:54:38.133Z,16.13
2023-04-02T12:55:38.097Z,15.82
2023-04-02T12:56:38.085Z,15.54
2023-04-02T12:57:38.151Z,15.28
2023-04-02T12:58:39.020Z,15.06
2023-04-02T12:59:38.049Z,14.89
2023-04-02T13:00:38.243Z,14.77
2023-04-02T13:01:38.077Z,14.60
2023-04-02T13:02:38.062Z,14.50
2023-04-02T13:03:38.991Z,15.61
2023-04-02T13:04:38.004Z,16.78
2023-04-02T13:05:37.967Z,17.76
2023-04-02T13:06:37.958Z,18.63
2023-04-02T13:07:37.969Z,19.52
2023-04-02T13:08:38.876Z,20.39
2023-04-02T13:09:37.939Z,21.03
2023-04-02T13:10:38.181Z,21.30
2023-04-02T13:11:37.900Z,21.88
2023-04-02T13:12:37.924Z,21.30